sensor_id;sensor_type;location;lat;lon;timestamp;pressure;altitude;pressure_sealevel;temperature;humidity
26719;BME280;14326;50.794;6.060;2024-03-08T00:02:34;99650.59;;;4.04;91.21
26719;BME280;14326;50.794;6.060;2024-03-08T00:05:01;99642.56;;;4.01;92.17
26719;BME280;14326;50.794;6.060;2024-03-08T00:07:28;99644.22;;;3.97;92.20
26719;BME280;14326;50.794;6.060;2024-03-08T00:09:56;99639.00;;;3.99;92.39
26719;BME280;14326;50.794;6.060;2024-03-08T00:12:23;99639.00;;;3.99;92.45
26719;BME280;14326;50.794;6.060;2024-03-08T00:14:51;99639.06;;;4.00;92.47
26719;BME280;14326;50.794;6.060;2024-03-08T00:17:17;99641.38;;;3.91;92.22
26719;BME280;14326;50.794;6.060;2024-03-08T00:19:44;99634.22;;;3.87;92.58
26719;BME280;14326;50.794;6.060;2024-03-08T00:22:11;99636.00;;;3.88;92.58
26719;BME280;14326;50.794;6.060;2024-03-08T00:24:37;99636.22;;;3.94;92.65
26719;BME280;14326;50.794;6.060;2024-03-08T00:27:05;99626.31;;;3.87;92.54
26719;BME280;14326;50.794;6.060;2024-03-08T00:29:32;99620.91;;;3.83;93.23
26719;BME280;14326;50.794;6.060;2024-03-08T00:31:59;99628.66;;;3.80;93.25
26719;BME280;14326;50.794;6.060;2024-03-08T00:34:26;99625.06;;;3.78;93.20
26719;BME280;14326;50.794;6.060;2024-03-08T00:36:53;99622.28;;;3.73;94.02
26719;BME280;14326;50.794;6.060;2024-03-08T00:39:20;99616.88;;;3.68;94.33
26719;BME280;14326;50.794;6.060;2024-03-08T00:41:47;99621.34;;;3.71;93.96
26719;BME280;14326;50.794;6.060;2024-03-08T00:44:15;99618.50;;;3.65;94.11
26719;BME280;14326;50.794;6.060;2024-03-08T00:46:41;99619.44;;;3.67;94.59
26719;BME280;14326;50.794;6.060;2024-03-08T00:49:08;99618.22;;;3.57;95.18
26719;BME280;14326;50.794;6.060;2024-03-08T00:51:35;99620.69;;;3.53;95.27
26719;BME280;14326;50.794;6.060;2024-03-08T00:54:02;99617.75;;;3.45;95.67
26719;BME280;14326;50.794;6.060;2024-03-08T00:56:28;99629.00;;;3.41;96.17
26719;BME280;14326;50.794;6.060;2024-03-08T00:58:55;99613.28;;;3.43;96.64
26719;BME280;14326;50.794;6.060;2024-03-08T01:01:23;99621.78;;;3.36;96.80
26719;BME280;14326;50.794;6.060;2024-03-08T01:03:50;99612.16;;;3.36;96.85
26719;BME280;14326;50.794;6.060;2024-03-08T01:06:17;99603.78;;;3.46;96.74
26719;BME280;14326;50.794;6.060;2024-03-08T01:08:44;99610.53;;;3.40;96.41
26719;BME280;14326;50.794;6.060;2024-03-08T01:11:12;99608.53;;;3.33;96.71
26719;BME280;14326;50.794;6.060;2024-03-08T01:13:39;99603.16;;;3.29;97.06
26719;BME280;14326;50.794;6.060;2024-03-08T01:16:06;99598.84;;;3.32;97.17
26719;BME280;14326;50.794;6.060;2024-03-08T01:18:34;99606.56;;;3.27;97.43
26719;BME280;14326;50.794;6.060;2024-03-08T01:21:01;99596.81;;;3.24;97.70
26719;BME280;14326;50.794;6.060;2024-03-08T01:23:28;99605.44;;;3.20;97.95
26719;BME280;14326;50.794;6.060;2024-03-08T01:25:55;99596.34;;;3.12;98.46
26719;BME280;14326;50.794;6.060;2024-03-08T01:28:23;99591.09;;;3.12;98.81
26719;BME280;14326;50.794;6.060;2024-03-08T01:30:50;99590.81;;;3.05;99.05
26719;BME280;14326;50.794;6.060;2024-03-08T01:33:21;99592.56;;;3.04;99.47
26719;BME280;14326;50.794;6.060;2024-03-08T01:35:49;99588.78;;;2.98;99.90
26719;BME280;14326;50.794;6.060;2024-03-08T01:38:16;99584.44;;;2.98;100.00
26719;BME280;14326;50.794;6.060;2024-03-08T01:40:42;99581.44;;;2.89;100.00
26719;BME280;14326;50.794;6.060;2024-03-08T01:43:19;99572.91;;;2.95;100.00
26719;BME280;14326;50.794;6.060;2024-03-08T01:45:45;99576.19;;;2.89;100.00
26719;BME280;14326;50.794;6.060;2024-03-08T01:48:12;99573.22;;;2.80;100.00
26719;BME280;14326;50.794;6.060;2024-03-08T01:50:40;99569.75;;;2.81;100.00
26719;BME280;14326;50.794;6.060;2024-03-08T01:53:09;99573.97;;;2.77;100.00
26719;BME280;14326;50.794;6.060;2024-03-08T01:55:38;99563.91;;;2.66;100.00
26719;BME280;14326;50.794;6.060;2024-03-08T01:58:05;99568.69;;;2.76;100.00
26719;BME280;14326;50.794;6.060;2024-03-08T02:00:33;99568.31;;;2.67;100.00
26719;BME280;14326;50.794;6.060;2024-03-08T02:03:01;99563.06;;;2.67;100.00
26719;BME280;14326;50.794;6.060;2024-03-08T02:05:28;99562.06;;;2.63;100.00
26719;BME280;14326;50.794;6.060;2024-03-08T02:07:55;99562.81;;;2.61;100.00
26719;BME280;14326;50.794;6.060;2024-03-08T02:10:23;99550.53;;;2.60;100.00
26719;BME280;14326;50.794;6.060;2024-03-08T02:12:50;99548.75;;;2.59;100.00
26719;BME280;14326;50.794;6.060;2024-03-08T02:15:17;99548.63;;;2.56;100.00
26719;BME280;14326;50.794;6.060;2024-03-08T02:17:44;99548.94;;;2.41;100.00
26719;BME280;14326;50.794;6.060;2024-03-08T02:20:11;99549.84;;;2.41;100.00
26719;BME280;14326;50.794;6.060;2024-03-08T02:22:39;99544.25;;;2.34;100.00
26719;BME280;14326;50.794;6.060;2024-03-08T02:25:08;99539.38;;;2.43;100.00
26719;BME280;14326;50.794;6.060;2024-03-08T02:27:34;99533.69;;;2.32;100.00
26719;BME280;14326;50.794;6.060;2024-03-08T02:30:01;99534.91;;;2.40;100.00
26719;BME280;14326;50.794;6.060;2024-03-08T02:32:28;99540.44;;;2.48;100.00
26719;BME280;14326;50.794;6.060;2024-03-08T02:34:56;99529.44;;;2.36;100.00
26719;BME280;14326;50.794;6.060;2024-03-08T02:37:25;99534.66;;;2.34;100.00
26719;BME280;14326;50.794;6.060;2024-03-08T02:39:53;99525.81;;;2.32;100.00
26719;BME280;14326;50.794;6.060;2024-03-08T02:42:20;99526.66;;;2.31;100.00
26719;BME280;14326;50.794;6.060;2024-03-08T02:44:46;99532.56;;;2.26;100.00
26719;BME280;14326;50.794;6.060;2024-03-08T02:47:13;99523.69;;;2.22;100.00
26719;BME280;14326;50.794;6.060;2024-03-08T02:49:40;99526.41;;;2.25;100.00
26719;BME280;14326;50.794;6.060;2024-03-08T02:52:07;99525.66;;;2.28;100.00
26719;BME280;14326;50.794;6.060;2024-03-08T02:54:33;99523.13;;;2.31;100.00
26719;BME280;14326;50.794;6.060;2024-03-08T02:57:03;99523.84;;;2.27;100.00
26719;BME280;14326;50.794;6.060;2024-03-08T02:59:32;99519.19;;;2.20;100.00
26719;BME280;14326;50.794;6.060;2024-03-08T03:01:59;99519.13;;;2.18;100.00
26719;BME280;14326;50.794;6.060;2024-03-08T03:04:26;99517.22;;;2.14;100.00
26719;BME280;14326;50.794;6.060;2024-03-08T03:06:53;99516.56;;;2.20;100.00
26719;BME280;14326;50.794;6.060;2024-03-08T03:09:20;99513.75;;;2.15;100.00
26719;BME280;14326;50.794;6.060;2024-03-08T03:11:49;99508.28;;;2.09;100.00
26719;BME280;14326;50.794;6.060;2024-03-08T03:14:17;99515.06;;;2.04;100.00
26719;BME280;14326;50.794;6.060;2024-03-08T03:16:44;99508.19;;;2.08;100.00
26719;BME280;14326;50.794;6.060;2024-03-08T03:19:11;99505.00;;;2.15;100.00
26719;BME280;14326;50.794;6.060;2024-03-08T03:21:37;99502.00;;;2.05;100.00
26719;BME280;14326;50.794;6.060;2024-03-08T03:24:05;99495.47;;;1.96;100.00
26719;BME280;14326;50.794;6.060;2024-03-08T03:26:35;99496.38;;;1.96;100.00
26719;BME280;14326;50.794;6.060;2024-03-08T03:29:02;99492.34;;;1.84;100.00
26719;BME280;14326;50.794;6.060;2024-03-08T03:31:32;99496.00;;;1.87;100.00
26719;BME280;14326;50.794;6.060;2024-03-08T03:33:59;99488.25;;;1.90;100.00
26719;BME280;14326;50.794;6.060;2024-03-08T03:36:28;99492.16;;;2.00;100.00
26719;BME280;14326;50.794;6.060;2024-03-08T03:38:55;99479.75;;;1.96;100.00
26719;BME280;14326;50.794;6.060;2024-03-08T03:41:30;99491.03;;;1.93;100.00
26719;BME280;14326;50.794;6.060;2024-03-08T03:43:56;99496.91;;;1.88;100.00
26719;BME280;14326;50.794;6.060;2024-03-08T03:46:24;99491.78;;;1.91;100.00
26719;BME280;14326;50.794;6.060;2024-03-08T03:48:53;99481.22;;;1.89;100.00
26719;BME280;14326;50.794;6.060;2024-03-08T03:51:20;99484.38;;;1.81;100.00
26719;BME280;14326;50.794;6.060;2024-03-08T03:53:47;99486.94;;;1.79;100.00
26719;BME280;14326;50.794;6.060;2024-03-08T03:56:14;99487.06;;;1.82;100.00
26719;BME280;14326;50.794;6.060;2024-03-08T03:58:40;99481.63;;;1.78;100.00
26719;BME280;14326;50.794;6.060;2024-03-08T04:01:08;99475.72;;;1.83;100.00
26719;BME280;14326;50.794;6.060;2024-03-08T04:03:34;99479.00;;;1.78;100.00
26719;BME280;14326;50.794;6.060;2024-03-08T04:06:04;99475.69;;;1.82;100.00
26719;BME280;14326;50.794;6.060;2024-03-08T04:08:31;99475.44;;;1.76;100.00
26719;BME280;14326;50.794;6.060;2024-03-08T04:10:59;99467.50;;;1.74;100.00
26719;BME280;14326;50.794;6.060;2024-03-08T04:13:26;99462.81;;;1.67;100.00
26719;BME280;14326;50.794;6.060;2024-03-08T04:15:53;99454.97;;;1.67;100.00
26719;BME280;14326;50.794;6.060;2024-03-08T04:18:19;99460.09;;;1.64;100.00
26719;BME280;14326;50.794;6.060;2024-03-08T04:20:46;99458.78;;;1.54;100.00
26719;BME280;14326;50.794;6.060;2024-03-08T04:23:14;99449.72;;;1.67;100.00
26719;BME280;14326;50.794;6.060;2024-03-08T04:25:41;99456.44;;;1.60;100.00
26719;BME280;14326;50.794;6.060;2024-03-08T04:28:08;99444.88;;;1.55;100.00
26719;BME280;14326;50.794;6.060;2024-03-08T04:30:37;99445.44;;;1.48;100.00
26719;BME280;14326;50.794;6.060;2024-03-08T04:33:04;99443.97;;;1.55;100.00
26719;BME280;14326;50.794;6.060;2024-03-08T04:35:31;99442.16;;;1.54;100.00
26719;BME280;14326;50.794;6.060;2024-03-08T04:37:58;99439.25;;;1.46;100.00
26719;BME280;14326;50.794;6.060;2024-03-08T04:40:26;99436.63;;;1.46;100.00
26719;BME280;14326;50.794;6.060;2024-03-08T04:42:53;99434.44;;;1.36;100.00
26719;BME280;14326;50.794;6.060;2024-03-08T04:45:19;99439.56;;;1.33;100.00
26719;BME280;14326;50.794;6.060;2024-03-08T04:47:47;99436.03;;;1.33;100.00
26719;BME280;14326;50.794;6.060;2024-03-08T04:50:13;99425.06;;;1.41;100.00
26719;BME280;14326;50.794;6.060;2024-03-08T04:52:40;99433.88;;;1.43;100.00
26719;BME280;14326;50.794;6.060;2024-03-08T04:55:06;99427.72;;;1.43;100.00
26719;BME280;14326;50.794;6.060;2024-03-08T04:57:34;99430.50;;;1.46;100.00
26719;BME280;14326;50.794;6.060;2024-03-08T05:00:01;99426.16;;;1.46;100.00
26719;BME280;14326;50.794;6.060;2024-03-08T05:02:29;99426.91;;;1.44;100.00
26719;BME280;14326;50.794;6.060;2024-03-08T05:04:56;99417.41;;;1.46;100.00
26719;BME280;14326;50.794;6.060;2024-03-08T05:07:22;99414.69;;;1.44;100.00
26719;BME280;14326;50.794;6.060;2024-03-08T05:09:49;99403.75;;;1.54;100.00
26719;BME280;14326;50.794;6.060;2024-03-08T05:12:17;99403.75;;;1.54;100.00
26719;BME280;14326;50.794;6.060;2024-03-08T05:14:45;99405.63;;;1.57;100.00
26719;BME280;14326;50.794;6.060;2024-03-08T05:17:15;99393.50;;;1.59;100.00
26719;BME280;14326;50.794;6.060;2024-03-08T05:19:41;99401.28;;;1.57;100.00
26719;BME280;14326;50.794;6.060;2024-03-08T05:22:08;99401.28;;;1.57;100.00
26719;BME280;14326;50.794;6.060;2024-03-08T05:24:34;99398.59;;;1.56;100.00
26719;BME280;14326;50.794;6.060;2024-03-08T05:27:01;99392.59;;;1.58;100.00
26719;BME280;14326;50.794;6.060;2024-03-08T05:29:28;99396.97;;;1.59;100.00
26719;BME280;14326;50.794;6.060;2024-03-08T05:31:56;99403.19;;;1.61;100.00
26719;BME280;14326;50.794;6.060;2024-03-08T05:34:23;99403.31;;;1.64;100.00
26719;BME280;14326;50.794;6.060;2024-03-08T05:36:51;99394.50;;;1.62;100.00
26719;BME280;14326;50.794;6.060;2024-03-08T05:39:19;99387.47;;;1.61;100.00
26719;BME280;14326;50.794;6.060;2024-03-08T05:41:46;99390.78;;;1.57;100.00
26719;BME280;14326;50.794;6.060;2024-03-08T05:44:13;99389.00;;;1.56;100.00
26719;BME280;14326;50.794;6.060;2024-03-08T05:46:40;99385.41;;;1.54;100.00
26719;BME280;14326;50.794;6.060;2024-03-08T05:49:08;99396.03;;;1.57;100.00
26719;BME280;14326;50.794;6.060;2024-03-08T05:51:36;99382.09;;;1.58;100.00
26719;BME280;14326;50.794;6.060;2024-03-08T05:54:04;99379.50;;;1.58;100.00
26719;BME280;14326;50.794;6.060;2024-03-08T05:56:31;99376.91;;;1.60;100.00
26719;BME280;14326;50.794;6.060;2024-03-08T05:58:58;99370.91;;;1.62;100.00
26719;BME280;14326;50.794;6.060;2024-03-08T06:01:25;99363.75;;;1.58;100.00
26719;BME280;14326;50.794;6.060;2024-03-08T06:03:52;99372.53;;;1.59;100.00
26719;BME280;14326;50.794;6.060;2024-03-08T06:06:23;99368.03;;;1.56;100.00
26719;BME280;14326;50.794;6.060;2024-03-08T06:08:50;99375.19;;;1.60;100.00
26719;BME280;14326;50.794;6.060;2024-03-08T06:11:17;99363.75;;;1.58;100.00
26719;BME280;14326;50.794;6.060;2024-03-08T06:13:44;99359.41;;;1.59;100.00
26719;BME280;14326;50.794;6.060;2024-03-08T06:16:11;99363.94;;;1.63;100.00
26719;BME280;14326;50.794;6.060;2024-03-08T06:18:38;99363.03;;;1.62;100.00
26719;BME280;14326;50.794;6.060;2024-03-08T06:21:05;99355.19;;;1.62;100.00
26719;BME280;14326;50.794;6.060;2024-03-08T06:23:33;99347.66;;;1.72;100.00
26719;BME280;14326;50.794;6.060;2024-03-08T06:26:03;99351.00;;;1.68;100.00
26719;BME280;14326;50.794;6.060;2024-03-08T06:28:30;99347.63;;;1.70;100.00
26719;BME280;14326;50.794;6.060;2024-03-08T06:30:57;99347.63;;;1.70;100.00
26719;BME280;14326;50.794;6.060;2024-03-08T06:33:24;99342.31;;;1.69;100.00
26719;BME280;14326;50.794;6.060;2024-03-08T06:35:51;99340.53;;;1.68;100.00
26719;BME280;14326;50.794;6.060;2024-03-08T06:38:18;99334.56;;;1.72;100.00
26719;BME280;14326;50.794;6.060;2024-03-08T06:40:47;99337.31;;;1.75;100.00
26719;BME280;14326;50.794;6.060;2024-03-08T06:43:14;99331.25;;;1.76;100.00
26719;BME280;14326;50.794;6.060;2024-03-08T06:45:41;99333.63;;;1.92;100.00
26719;BME280;14326;50.794;6.060;2024-03-08T06:48:13;99332.88;;;1.96;100.00
26719;BME280;14326;50.794;6.060;2024-03-08T06:50:40;99335.59;;;2.21;100.00
26719;BME280;14326;50.794;6.060;2024-03-08T06:53:06;99337.63;;;2.76;100.00
26719;BME280;14326;50.794;6.060;2024-03-08T06:55:33;99334.75;;;3.20;98.49
26719;BME280;14326;50.794;6.060;2024-03-08T06:58:01;99335.59;;;3.73;94.61
26719;BME280;14326;50.794;6.060;2024-03-08T07:00:28;99327.91;;;4.37;91.16
26719;BME280;14326;50.794;6.060;2024-03-08T07:02:55;99319.34;;;4.44;88.48
26719;BME280;14326;50.794;6.060;2024-03-08T07:05:26;99324.78;;;4.83;89.70
26719;BME280;14326;50.794;6.060;2024-03-08T07:07:52;99327.34;;;5.12;83.01
26719;BME280;14326;50.794;6.060;2024-03-08T07:10:20;99323.75;;;5.44;81.94
26719;BME280;14326;50.794;6.060;2024-03-08T07:12:49;99313.16;;;5.43;78.96
26719;BME280;14326;50.794;6.060;2024-03-08T07:15:17;99308.59;;;5.73;78.15
26719;BME280;14326;50.794;6.060;2024-03-08T07:17:44;99304.28;;;6.56;72.62
26719;BME280;14326;50.794;6.060;2024-03-08T07:20:12;99307.63;;;6.05;73.48
26719;BME280;14326;50.794;6.060;2024-03-08T07:22:41;99298.94;;;6.11;75.40
26719;BME280;14326;50.794;6.060;2024-03-08T07:25:08;99295.13;;;6.84;69.35
26719;BME280;14326;50.794;6.060;2024-03-08T07:27:47;99291.38;;;6.71;68.13
26719;BME280;14326;50.794;6.060;2024-03-08T07:30:14;99288.84;;;6.77;67.83
26719;BME280;14326;50.794;6.060;2024-03-08T07:33:03;99276.28;;;7.68;64.04
26719;BME280;14326;50.794;6.060;2024-03-08T07:35:30;99269.81;;;8.09;59.91
26719;BME280;14326;50.794;6.060;2024-03-08T07:37:57;99268.22;;;8.23;61.52
26719;BME280;14326;50.794;6.060;2024-03-08T07:40:25;99251.91;;;8.61;59.61
26719;BME280;14326;50.794;6.060;2024-03-08T07:42:52;99251.94;;;7.34;61.70
26719;BME280;14326;50.794;6.060;2024-03-08T07:45:18;99248.81;;;7.61;62.68
26719;BME280;14326;50.794;6.060;2024-03-08T07:47:47;99258.69;;;6.68;66.82
26719;BME280;14326;50.794;6.060;2024-03-08T07:50:15;99260.50;;;6.69;69.38
26719;BME280;14326;50.794;6.060;2024-03-08T07:52:42;99257.03;;;6.73;70.53
26719;BME280;14326;50.794;6.060;2024-03-08T07:55:09;99258.34;;;6.49;70.15
26719;BME280;14326;50.794;6.060;2024-03-08T07:57:36;99242.69;;;6.58;70.29
26719;BME280;14326;50.794;6.060;2024-03-08T08:00:05;99248.31;;;6.77;68.99
26719;BME280;14326;50.794;6.060;2024-03-08T08:02:33;99249.75;;;5.75;75.04
26719;BME280;14326;50.794;6.060;2024-03-08T08:05:00;99245.22;;;6.09;75.60
26719;BME280;14326;50.794;6.060;2024-03-08T08:07:28;99243.22;;;6.41;73.95
26719;BME280;14326;50.794;6.060;2024-03-08T08:09:55;99236.94;;;6.34;74.77
26719;BME280;14326;50.794;6.060;2024-03-08T08:12:21;99235.59;;;6.56;71.03
26719;BME280;14326;50.794;6.060;2024-03-08T08:14:48;99231.41;;;6.69;71.27
26719;BME280;14326;50.794;6.060;2024-03-08T08:17:15;99231.94;;;6.48;70.42
26719;BME280;14326;50.794;6.060;2024-03-08T08:19:42;99227.16;;;6.29;72.73
26719;BME280;14326;50.794;6.060;2024-03-08T08:22:08;99224.03;;;6.51;71.93
26719;BME280;14326;50.794;6.060;2024-03-08T08:24:37;99228.94;;;5.89;75.04
26719;BME280;14326;50.794;6.060;2024-03-08T08:27:04;99230.44;;;6.18;74.51
26719;BME280;14326;50.794;6.060;2024-03-08T08:29:30;99225.16;;;5.78;75.29
26719;BME280;14326;50.794;6.060;2024-03-08T08:31:58;99215.44;;;5.75;77.51
26719;BME280;14326;50.794;6.060;2024-03-08T08:34:25;99217.41;;;5.45;78.26
26719;BME280;14326;50.794;6.060;2024-03-08T08:36:52;99211.53;;;5.97;78.82
26719;BME280;14326;50.794;6.060;2024-03-08T08:39:19;99194.66;;;5.50;78.73
26719;BME280;14326;50.794;6.060;2024-03-08T08:41:49;99196.41;;;5.89;77.46
26719;BME280;14326;50.794;6.060;2024-03-08T08:44:15;99195.78;;;6.02;76.73
26719;BME280;14326;50.794;6.060;2024-03-08T08:46:42;99186.97;;;6.00;76.17
26719;BME280;14326;50.794;6.060;2024-03-08T08:49:09;99183.19;;;5.87;76.79
26719;BME280;14326;50.794;6.060;2024-03-08T08:51:36;99183.09;;;5.86;78.67
26719;BME280;14326;50.794;6.060;2024-03-08T08:54:02;99175.66;;;6.07;77.27
26719;BME280;14326;50.794;6.060;2024-03-08T08:56:29;99179.75;;;5.52;78.28
26719;BME280;14326;50.794;6.060;2024-03-08T08:58:57;99186.28;;;5.69;79.69
26719;BME280;14326;50.794;6.060;2024-03-08T09:01:24;99173.13;;;5.71;79.56
26719;BME280;14326;50.794;6.060;2024-03-08T09:03:50;99165.50;;;5.85;78.54
26719;BME280;14326;50.794;6.060;2024-03-08T09:06:17;99162.31;;;6.01;76.25
26719;BME280;14326;50.794;6.060;2024-03-08T09:08:44;99161.22;;;5.90;76.13
26719;BME280;14326;50.794;6.060;2024-03-08T09:11:11;99166.53;;;5.91;77.59
26719;BME280;14326;50.794;6.060;2024-03-08T09:13:38;99158.66;;;5.93;76.41
26719;BME280;14326;50.794;6.060;2024-03-08T09:16:06;99157.41;;;6.18;75.76
26719;BME280;14326;50.794;6.060;2024-03-08T09:18:33;99157.63;;;6.31;76.88
26719;BME280;14326;50.794;6.060;2024-03-08T09:21:00;99147.84;;;6.26;73.33
26719;BME280;14326;50.794;6.060;2024-03-08T09:23:27;99131.44;;;6.43;74.96
26719;BME280;14326;50.794;6.060;2024-03-08T09:25:55;99134.81;;;6.36;73.33
26719;BME280;14326;50.794;6.060;2024-03-08T09:28:22;99141.66;;;6.25;75.33
26719;BME280;14326;50.794;6.060;2024-03-08T09:30:49;99127.00;;;6.42;74.52
26719;BME280;14326;50.794;6.060;2024-03-08T09:33:17;99121.84;;;6.48;73.41
26719;BME280;14326;50.794;6.060;2024-03-08T09:35:45;99115.81;;;6.55;72.97
26719;BME280;14326;50.794;6.060;2024-03-08T09:38:12;99117.44;;;6.49;72.71
26719;BME280;14326;50.794;6.060;2024-03-08T09:40:38;99116.97;;;6.73;73.37
26719;BME280;14326;50.794;6.060;2024-03-08T09:43:07;99111.88;;;6.85;73.09
26719;BME280;14326;50.794;6.060;2024-03-08T09:45:36;99104.00;;;6.88;72.21
26719;BME280;14326;50.794;6.060;2024-03-08T09:48:05;99110.94;;;6.81;71.99
26719;BME280;14326;50.794;6.060;2024-03-08T09:50:35;99107.34;;;6.76;72.34
26719;BME280;14326;50.794;6.060;2024-03-08T09:53:02;99096.28;;;7.03;74.04
26719;BME280;14326;50.794;6.060;2024-03-08T09:55:29;99087.53;;;7.06;72.97
26719;BME280;14326;50.794;6.060;2024-03-08T09:58:00;99092.19;;;7.23;72.35
26719;BME280;14326;50.794;6.060;2024-03-08T10:00:48;99085.38;;;7.44;71.91
26719;BME280;14326;50.794;6.060;2024-03-08T10:03:15;99090.75;;;7.47;70.13
26719;BME280;14326;50.794;6.060;2024-03-08T10:05:43;99085.59;;;7.59;68.44
26719;BME280;14326;50.794;6.060;2024-03-08T10:08:10;99073.38;;;7.70;68.62
26719;BME280;14326;50.794;6.060;2024-03-08T10:10:37;99081.28;;;7.67;68.19
26719;BME280;14326;50.794;6.060;2024-03-08T10:13:06;99072.69;;;7.86;67.23
26719;BME280;14326;50.794;6.060;2024-03-08T10:15:32;99054.34;;;8.07;66.00
26719;BME280;14326;50.794;6.060;2024-03-08T10:17:59;99056.19;;;8.14;66.08
26719;BME280;14326;50.794;6.060;2024-03-08T10:20:28;99066.66;;;8.01;64.63
26719;BME280;14326;50.794;6.060;2024-03-08T10:22:59;99060.66;;;8.17;63.98
26719;BME280;14326;50.794;6.060;2024-03-08T10:25:28;99064.34;;;8.33;63.57
26719;BME280;14326;50.794;6.060;2024-03-08T10:27:55;99045.00;;;8.44;62.32
26719;BME280;14326;50.794;6.060;2024-03-08T10:30:22;99046.69;;;8.30;62.11
26719;BME280;14326;50.794;6.060;2024-03-08T10:32:49;99043.22;;;8.40;60.28
26719;BME280;14326;50.794;6.060;2024-03-08T10:35:17;99045.06;;;8.47;59.92
26719;BME280;14326;50.794;6.060;2024-03-08T10:37:47;99024.72;;;8.46;59.00
26719;BME280;14326;50.794;6.060;2024-03-08T10:40:17;99025.81;;;8.71;60.24
26719;BME280;14326;50.794;6.060;2024-03-08T10:42:52;99032.09;;;8.87;58.36
26719;BME280;14326;50.794;6.060;2024-03-08T10:45:30;99025.06;;;8.95;58.07
26719;BME280;14326;50.794;6.060;2024-03-08T10:48:07;99020.78;;;9.26;58.10
26719;BME280;14326;50.794;6.060;2024-03-08T10:50:36;99018.25;;;9.50;56.50
26719;BME280;14326;50.794;6.060;2024-03-08T10:53:06;99024.41;;;9.49;54.42
26719;BME280;14326;50.794;6.060;2024-03-08T10:55:36;99012.03;;;9.50;54.50
26719;BME280;14326;50.794;6.060;2024-03-08T10:58:03;99007.69;;;9.74;54.02
26719;BME280;14326;50.794;6.060;2024-03-08T11:00:31;99009.47;;;9.84;54.18
26719;BME280;14326;50.794;6.060;2024-03-08T11:02:58;99005.09;;;9.97;53.35
26719;BME280;14326;50.794;6.060;2024-03-08T11:05:32;98995.38;;;10.10;51.59
26719;BME280;14326;50.794;6.060;2024-03-08T11:08:05;98989.16;;;10.05;51.95
26719;BME280;14326;50.794;6.060;2024-03-08T11:10:33;98983.03;;;10.24;51.79
26719;BME280;14326;50.794;6.060;2024-03-08T11:13:00;98984.78;;;10.34;50.90
26719;BME280;14326;50.794;6.060;2024-03-08T11:15:29;98975.91;;;10.27;50.18
26719;BME280;14326;50.794;6.060;2024-03-08T11:17:58;98986.56;;;10.29;49.99
26719;BME280;14326;50.794;6.060;2024-03-08T11:20:26;98974.09;;;10.14;49.92
26719;BME280;14326;50.794;6.060;2024-03-08T11:22:55;98960.88;;;10.30;50.95
26719;BME280;14326;50.794;6.060;2024-03-08T11:25:37;98967.91;;;10.56;49.20
26719;BME280;14326;50.794;6.060;2024-03-08T11:28:08;98966.16;;;10.57;49.94
26719;BME280;14326;50.794;6.060;2024-03-08T11:30:35;98955.47;;;10.67;48.80
26719;BME280;14326;50.794;6.060;2024-03-08T11:33:03;98948.31;;;10.91;48.82
26719;BME280;14326;50.794;6.060;2024-03-08T11:35:30;98954.56;;;10.81;48.27
26719;BME280;14326;50.794;6.060;2024-03-08T11:37:58;98947.44;;;10.98;48.59
26719;BME280;14326;50.794;6.060;2024-03-08T11:40:26;98938.63;;;10.75;48.53
26719;BME280;14326;50.794;6.060;2024-03-08T11:42:54;98951.00;;;10.91;50.03
26719;BME280;14326;50.794;6.060;2024-03-08T11:45:20;98934.94;;;11.18;48.94
26719;BME280;14326;50.794;6.060;2024-03-08T11:47:47;98939.22;;;11.43;47.63
26719;BME280;14326;50.794;6.060;2024-03-08T11:50:14;98934.81;;;11.39;48.15
26719;BME280;14326;50.794;6.060;2024-03-08T11:52:42;98927.75;;;11.35;48.19
26719;BME280;14326;50.794;6.060;2024-03-08T11:55:11;98918.94;;;11.24;47.32
26719;BME280;14326;50.794;6.060;2024-03-08T11:57:38;98915.34;;;11.25;48.25
26719;BME280;14326;50.794;6.060;2024-03-08T12:00:15;98919.88;;;11.13;47.59
26719;BME280;14326;50.794;6.060;2024-03-08T12:03:00;98926.00;;;11.25;46.88
26719;BME280;14326;50.794;6.060;2024-03-08T12:05:27;98912.69;;;11.25;46.76
26719;BME280;14326;50.794;6.060;2024-03-08T12:07:57;98921.47;;;11.44;46.89
26719;BME280;14326;50.794;6.060;2024-03-08T12:10:24;98918.94;;;11.20;47.14
26719;BME280;14326;50.794;6.060;2024-03-08T12:12:52;98907.19;;;11.56;47.02
26719;BME280;14326;50.794;6.060;2024-03-08T12:15:22;98903.78;;;11.35;46.23
26719;BME280;14326;50.794;6.060;2024-03-08T12:17:49;98893.97;;;11.46;46.80
26719;BME280;14326;50.794;6.060;2024-03-08T12:20:17;98894.81;;;11.52;46.24
26719;BME280;14326;50.794;6.060;2024-03-08T12:22:47;98902.81;;;11.52;46.04
26719;BME280;14326;50.794;6.060;2024-03-08T12:25:14;98888.44;;;11.78;47.17
26719;BME280;14326;50.794;6.060;2024-03-08T12:27:42;98883.09;;;11.80;47.32
26719;BME280;14326;50.794;6.060;2024-03-08T12:30:21;98881.16;;;12.00;45.85
26719;BME280;14326;50.794;6.060;2024-03-08T12:32:52;98875.28;;;11.54;46.59
26719;BME280;14326;50.794;6.060;2024-03-08T12:35:20;98875.16;;;11.75;46.80
26719;BME280;14326;50.794;6.060;2024-03-08T12:37:52;98864.34;;;11.92;46.18
26719;BME280;14326;50.794;6.060;2024-03-08T12:40:19;98871.59;;;11.75;45.82
26719;BME280;14326;50.794;6.060;2024-03-08T12:42:46;98864.53;;;11.65;45.83
26719;BME280;14326;50.794;6.060;2024-03-08T12:45:14;98862.72;;;11.74;46.85
26719;BME280;14326;50.794;6.060;2024-03-08T12:47:42;98859.00;;;11.94;47.03
26719;BME280;14326;50.794;6.060;2024-03-08T12:50:10;98851.81;;;12.05;45.79
26719;BME280;14326;50.794;6.060;2024-03-08T12:52:37;98845.44;;;12.19;46.78
26719;BME280;14326;50.794;6.060;2024-03-08T12:55:04;98835.84;;;12.00;47.49
26719;BME280;14326;50.794;6.060;2024-03-08T12:57:33;98837.63;;;12.00;47.81
26719;BME280;14326;50.794;6.060;2024-03-08T13:00:00;98847.59;;;11.78;47.62
26719;BME280;14326;50.794;6.060;2024-03-08T13:02:27;98842.28;;;11.78;47.10
26719;BME280;14326;50.794;6.060;2024-03-08T13:04:55;98836.69;;;12.05;46.67
26719;BME280;14326;50.794;6.060;2024-03-08T13:07:22;98837.47;;;12.15;46.83
26719;BME280;14326;50.794;6.060;2024-03-08T13:09:51;98827.75;;;12.12;46.87